Time;durP1;ratioP1;P1;durP2;ratioP2;P2;SDS_P1;SDS_P2;PMS_P1;PMS_P2;Temp;Humidity;BMP_temperature;BMP_pressure;BME280_temperature;BME280_humidity;BME280_pressure;Samples;Min_cycle;Max_cycle;Signal;HPM_P1;HPM_P2
2023/06/16 00:01:23;;;;;;;7.20;6.60;;;15.40;99.90;;;;;;5097895;28;20463;-59
2023/06/16 00:03:52;;;;;;;8.33;7.43;;;15.40;99.90;;;;;;5097252;28;20517;-59
2023/06/16 00:06:20;;;;;;;7.33;6.17;;;15.40;99.90;;;;;;5097469;28;20464;-59
2023/06/16 00:08:48;;;;;;;11.20;6.87;;;15.50;99.90;;;;;;5097971;28;20534;-59
2023/06/16 00:11:16;;;;;;;7.40;6.70;;;15.50;99.90;;;;;;5097826;28;20503;-59
2023/06/16 00:13:45;;;;;;;7.30;6.60;;;15.60;99.90;;;;;;5099124;28;20579;-60
2023/06/16 00:16:13;;;;;;;8.20;6.67;;;15.60;99.90;;;;;;5101311;28;20496;-59
2023/06/16 00:18:43;;;;;;;7.17;6.47;;;15.60;99.90;;;;;;5096524;28;20460;-58
2023/06/16 00:21:14;;;;;;;7.57;6.80;;;15.70;99.90;;;;;;5097169;28;20766;-59
2023/06/16 00:23:41;;;;;;;8.43;5.83;;;15.70;99.90;;;;;;5097797;28;20773;-58
2023/06/16 00:26:08;;;;;;;7.90;5.97;;;15.70;74.90;;;;;;5096737;28;20456;-59
2023/06/16 00:28:35;;;;;;;8.57;6.57;;;15.70;99.90;;;;;;5097002;28;20468;-59
2023/06/16 00:31:02;;;;;;;7.13;6.13;;;15.70;99.90;;;;;;5097407;28;20774;-59
2023/06/16 00:33:30;;;;;;;7.50;6.80;;;15.70;99.90;;;;;;5097989;28;20551;-58
2023/06/16 00:35:57;;;;;;;7.43;6.73;;;15.70;99.90;;;;;;5096815;28;20773;-58
2023/06/16 00:38:25;;;;;;;7.07;6.43;;;15.70;99.90;;;;;;5097573;28;20769;-57
2023/06/16 00:40:53;;;;;;;7.90;6.80;;;15.80;99.90;;;;;;5097883;28;20517;-57
2023/06/16 00:43:20;;;;;;;8.37;6.10;;;15.80;99.90;;;;;;5111921;28;20471;-55
2023/06/16 00:45:49;;;;;;;7.70;7.00;;;15.70;99.90;;;;;;5111886;28;20469;-57
2023/06/16 00:48:17;;;;;;;7.40;6.80;;;15.70;99.90;;;;;;5096773;28;20465;-58
2023/06/16 00:50:44;;;;;;;7.87;6.90;;;15.60;99.90;;;;;;5110355;28;20562;-55
2023/06/16 00:53:12;;;;;;;10.73;7.30;;;15.50;99.90;;;;;;5116945;28;20499;-57
2023/06/16 00:55:41;;;;;;;7.47;6.80;;;15.50;99.90;;;;;;5116114;28;20464;-57
2023/06/16 00:58:09;;;;;;;8.07;6.10;;;15.50;99.90;;;;;;5105352;28;20547;-59
2023/06/16 01:00:37;;;;;;;8.50;7.53;;;15.50;99.90;;;;;;5099433;28;20908;-58
2023/06/16 01:03:04;;;;;;;6.63;6.03;;;15.50;99.90;;;;;;5107356;28;20498;-58
2023/06/16 01:05:32;;;;;;;7.47;6.70;;;15.40;99.90;;;;;;5101566;28;20731;-58
2023/06/16 01:08:11;;;;;;;6.97;6.30;;;15.30;99.90;;;;;;5101719;28;20771;-58
2023/06/16 01:10:50;;;;;;;14.90;6.70;;;15.30;99.90;;;;;;5100678;28;20962;-58
2023/06/16 01:13:23;;;;;;;9.13;7.20;;;15.20;99.90;;;;;;5116486;28;20463;-59
2023/06/16 01:15:52;;;;;;;6.90;6.30;;;15.20;99.90;;;;;;5120514;28;20463;-58
2023/06/16 01:18:23;;;;;;;7.57;6.50;;;15.30;99.90;;;;;;5120468;28;20463;-58
2023/06/16 01:20:57;;;;;;;7.40;6.37;;;15.30;99.90;;;;;;5120327;28;20470;-58
2023/06/16 01:23:37;;;;;;;7.30;6.60;;;15.20;99.90;;;;;;5120651;28;20462;-58
2023/06/16 01:26:09;;;;;;;7.80;6.20;;;15.10;99.90;;;;;;5119925;28;20462;-58
2023/06/16 01:28:41;;;;;;;8.27;6.60;;;15.00;99.90;;;;;;5119992;28;20537;-59
2023/06/16 01:31:12;;;;;;;7.00;6.40;;;15.00;99.90;;;;;;5114212;28;20902;-58
2023/06/16 01:33:40;;;;;;;7.57;6.90;;;15.00;99.90;;;;;;5100882;28;20468;-59
2023/06/16 01:36:08;;;;;;;7.60;6.43;;;15.00;99.90;;;;;;5100181;28;20464;-59
2023/06/16 01:38:38;;;;;;;7.70;6.90;;;14.90;99.90;;;;;;5100502;28;20605;-59
2023/06/16 01:41:07;;;;;;;8.80;6.53;;;14.90;99.90;;;;;;5100455;28;20529;-58
2023/06/16 01:43:36;;;;;;;8.67;6.70;;;14.90;1.00;;;;;;5117812;28;20471;-58
2023/06/16 01:46:03;;;;;;;7.13;6.43;;;14.80;1.00;;;;;;5119299;28;20434;-58
2023/06/16 01:48:31;;;;;;;6.97;6.37;;;14.80;1.00;;;;;;5100393;28;20467;-59
2023/06/16 01:50:59;;;;;;;7.10;6.40;;;14.70;1.00;;;;;;5100841;28;20467;-59
2023/06/16 01:53:26;;;;;;;9.00;7.20;;;14.60;1.00;;;;;;5120261;28;20467;-58
2023/06/16 01:55:53;;;;;;;7.37;6.67;;;14.60;1.00;;;;;;5119889;28;20473;-58
2023/06/16 01:58:26;;;;;;;8.50;7.23;;;14.60;1.00;;;;;;5119221;28;20468;-58
2023/06/16 02:00:57;;;;;;;8.90;7.40;;;14.50;1.00;;;;;;5119473;28;20534;-57
2023/06/16 02:03:30;;;;;;;8.00;6.30;;;14.50;1.00;;;;;;5119259;28;20487;-58
2023/06/16 02:06:01;;;;;;;9.50;6.50;;;14.50;1.00;;;;;;5119777;28;20468;-58
2023/06/16 02:08:30;;;;;;;7.67;6.90;;;14.40;1.00;;;;;;5119537;28;20467;-58
2023/06/16 02:10:58;;;;;;;6.97;6.27;;;14.30;33.50;;;;;;5119650;28;20469;-58
2023/06/16 02:13:26;;;;;;;8.00;7.20;;;14.30;48.50;;;;;;5117102;28;20550;-58
2023/06/16 02:15:54;;;;;;;8.67;7.40;;;14.20;99.90;;;;;;5115737;28;20615;-59
2023/06/16 02:18:27;;;;;;;8.17;7.37;;;14.10;99.90;;;;;;5099994;28;20543;-58
2023/06/16 02:20:55;;;;;;;8.00;7.23;;;14.10;99.90;;;;;;5100119;28;20471;-58
2023/06/16 02:23:22;;;;;;;7.23;6.53;;;14.10;99.90;;;;;;5099834;28;20558;-58
2023/06/16 02:25:49;;;;;;;8.63;6.73;;;14.10;99.90;;;;;;5099795;28;20445;-58
2023/06/16 02:28:17;;;;;;;8.93;7.00;;;14.10;99.90;;;;;;5099467;28;20945;-58
2023/06/16 02:30:46;;;;;;;9.00;7.80;;;14.10;99.90;;;;;;5099812;28;20928;-58
2023/06/16 02:33:13;;;;;;;7.47;6.77;;;14.10;99.90;;;;;;5099506;28;20920;-59
2023/06/16 02:35:40;;;;;;;10.07;7.23;;;14.00;99.90;;;;;;5099819;28;20471;-58
2023/06/16 02:38:08;;;;;;;7.93;7.13;;;14.00;99.90;;;;;;5099055;28;20468;-58
2023/06/16 02:40:35;;;;;;;8.30;7.50;;;13.90;99.90;;;;;;5103951;28;20798;-58
2023/06/16 02:43:02;;;;;;;8.00;7.30;;;13.90;99.90;;;;;;5117303;28;20463;-58
2023/06/16 02:45:30;;;;;;;8.80;7.60;;;13.90;99.90;;;;;;5119415;28;20468;-59
2023/06/16 02:47:58;;;;;;;8.33;7.47;;;13.90;99.90;;;;;;5119020;28;20463;-58
2023/06/16 02:50:25;;;;;;;8.90;7.43;;;13.90;99.90;;;;;;5118679;28;20471;-58
2023/06/16 02:52:55;;;;;;;8.63;7.83;;;13.90;99.90;;;;;;5118893;28;20491;-57
2023/06/16 02:55:22;;;;;;;8.13;7.43;;;13.80;99.90;;;;;;5118935;28;20471;-58
2023/06/16 02:57:49;;;;;;;8.10;6.53;;;13.90;99.90;;;;;;5118867;28;20739;-58
2023/06/16 03:00:18;;;;;;;8.20;7.30;;;13.80;99.90;;;;;;5118305;28;21070;-58
2023/06/16 03:02:45;;;;;;;10.07;7.50;;;13.70;99.90;;;;;;5117873;28;20483;-58
2023/06/16 03:05:17;;;;;;;9.07;7.23;;;13.60;1.00;;;;;;5118467;28;20562;-57
2023/06/16 03:07:45;;;;;;;9.13;7.87;;;13.70;1.00;;;;;;5118353;28;20491;-57
2023/06/16 03:10:12;;;;;;;10.07;8.40;;;13.80;1.00;;;;;;5118270;28;20544;-57
2023/06/16 03:12:39;;;;;;;9.30;7.53;;;13.80;99.90;;;;;;5116945;27;20494;-58
2023/06/16 03:15:08;;;;;;;9.23;8.30;;;13.80;99.90;;;;;;5118321;28;20463;-58
2023/06/16 03:17:35;;;;;;;9.53;8.60;;;13.80;99.90;;;;;;5118408;28;20463;-58
2023/06/16 03:20:04;;;;;;;8.53;6.77;;;13.80;99.90;;;;;;5118426;28;20536;-57
2023/06/16 03:22:32;;;;;;;8.53;7.60;;;13.80;99.90;;;;;;5118038;28;20521;-58
2023/06/16 03:25:02;;;;;;;7.40;6.70;;;13.90;99.90;;;;;;5117600;28;20467;-58
2023/06/16 03:27:30;;;;;;;8.17;7.23;;;13.90;99.90;;;;;;5117972;28;20474;-58
2023/06/16 03:29:58;;;;;;;8.83;7.70;;;13.90;99.90;;;;;;5105109;28;20753;-59
2023/06/16 03:32:25;;;;;;;7.20;6.50;;;13.80;99.90;;;;;;5097981;28;20503;-58
2023/06/16 03:34:53;;;;;;;8.50;7.73;;;13.80;99.90;;;;;;5098263;28;20439;-58
2023/06/16 03:37:20;;;;;;;8.50;7.60;;;13.70;99.90;;;;;;5098431;28;20796;-58
2023/06/16 03:39:49;;;;;;;7.90;7.10;;;13.70;99.90;;;;;;5098427;28;20892;-58
2023/06/16 03:42:16;;;;;;;8.43;7.33;;;13.70;99.90;;;;;;5106383;28;20858;-58
2023/06/16 03:44:43;;;;;;;8.80;7.47;;;13.70;99.90;;;;;;5117384;28;20445;-57
2023/06/16 03:47:11;;;;;;;8.77;7.87;;;13.70;99.90;;;;;;5117702;28;20467;-57
2023/06/16 03:49:38;;;;;;;10.50;7.07;;;13.70;99.90;;;;;;5117845;28;20817;-58
2023/06/16 03:52:06;;;;;;;8.70;7.70;;;13.70;99.90;;;;;;5117189;28;20944;-58
2023/06/16 03:54:33;;;;;;;8.23;7.43;;;13.70;99.90;;;;;;5117286;28;20495;-57
2023/06/16 03:57:02;;;;;;;7.70;6.93;;;13.80;1.00;;;;;;5117441;28;20459;-58
2023/06/16 03:59:29;;;;;;;11.83;8.03;;;13.90;99.90;;;;;;5117664;28;20537;-57
2023/06/16 04:01:57;;;;;;;8.33;7.53;;;13.90;99.90;;;;;;5103418;28;20467;-58
2023/06/16 04:04:25;;;;;;;9.03;7.30;;;13.90;99.90;;;;;;5116986;28;20463;-57
2023/06/16 04:06:52;;;;;;;8.93;7.60;;;14.00;99.90;;;;;;5117234;28;20439;-58
2023/06/16 04:09:19;;;;;;;8.63;7.73;;;14.00;99.90;;;;;;5117232;28;20460;-58
2023/06/16 04:11:46;;;;;;;9.07;8.17;;;14.00;99.90;;;;;;5117044;28;20725;-58
2023/06/16 04:14:15;;;;;;;7.73;7.00;;;14.00;99.90;;;;;;5104325;28;20464;-59
2023/06/16 04:16:42;;;;;;;11.03;8.50;;;14.10;99.90;;;;;;5097026;28;20507;-58
2023/06/16 04:19:10;;;;;;;8.50;7.00;;;14.00;99.90;;;;;;5117387;28;20445;-58
2023/06/16 04:21:37;;;;;;;10.33;7.57;;;14.10;99.90;;;;;;5097295;28;20558;-58
2023/06/16 04:24:06;;;;;;;10.30;7.70;;;14.20;99.90;;;;;;5096293;28;20488;-56
2023/06/16 04:26:33;;;;;;;9.73;7.50;;;14.20;99.90;;;;;;5101825;28;20491;-58
2023/06/16 04:29:03;;;;;;;11.70;7.80;;;14.20;99.90;;;;;;5111791;28;20463;-58
2023/06/16 04:31:35;;;;;;;8.23;7.37;;;14.30;99.90;;;;;;5111058;28;20554;-58
2023/06/16 04:34:03;;;;;;;8.30;7.37;;;14.30;99.90;;;;;;5109948;28;20491;-57
2023/06/16 04:36:30;;;;;;;8.60;7.70;;;14.40;99.90;;;;;;5113120;28;20488;-58
2023/06/16 04:38:58;;;;;;;9.67;7.57;;;14.60;99.90;;;;;;5113103;28;20452;-56
2023/06/16 04:41:28;;;;;;;8.27;7.50;;;14.60;99.90;;;;;;5110688;28;20554;-58
2023/06/16 04:43:55;;;;;;;9.37;8.17;;;14.70;99.90;;;;;;5109356;28;20479;-58
2023/06/16 04:46:22;;;;;;;7.60;6.83;;;14.60;99.90;;;;;;5100612;28;20480;-58
2023/06/16 04:48:51;;;;;;;9.50;8.27;;;14.60;99.90;;;;;;5097106;28;20467;-58
2023/06/16 04:51:19;;;;;;;8.80;7.67;;;14.70;99.90;;;;;;5096650;28;20513;-59
2023/06/16 04:53:46;;;;;;;9.03;7.50;;;14.70;99.90;;;;;;5097528;28;20502;-58
2023/06/16 04:56:14;;;;;;;8.20;7.50;;;14.80;99.90;;;;;;5096924;28;20758;-59
2023/06/16 04:58:42;;;;;;;9.67;8.77;;;14.80;99.90;;;;;;5096923;28;20472;-58
2023/06/16 05:01:09;;;;;;;7.70;7.00;;;14.80;99.90;;;;;;5096930;28;20472;-58
2023/06/16 05:03:36;;;;;;;8.63;7.73;;;14.90;62.10;;;;;;5096783;28;20485;-58
2023/06/16 05:06:05;;;;;;;10.00;8.20;;;14.90;99.90;;;;;;5097465;28;20874;-59
2023/06/16 05:08:33;;;;;;;7.13;6.37;;;14.90;37.50;;;;;;5096952;28;20507;-58
2023/06/16 05:11:01;;;;;;;10.80;7.33;;;15.00;26.20;;;;;;5097439;28;20812;-58
2023/06/16 05:13:30;;;;;;;9.30;7.50;;;15.10;25.80;;;;;;5104558;28;20491;-58
2023/06/16 05:15:57;;;;;;;8.20;7.50;;;15.20;1.00;;;;;;5111443;28;20468;-59
2023/06/16 05:18:24;;;;;;;8.87;7.97;;;15.20;1.00;;;;;;5095455;28;20913;-58
2023/06/16 05:20:51;;;;;;;7.93;7.10;;;15.30;1.00;;;;;;5095658;28;20562;-59
2023/06/16 05:23:20;;;;;;;9.67;7.60;;;15.40;1.00;;;;;;5095936;28;20562;-59
2023/06/16 05:25:47;;;;;;;8.50;7.67;;;15.50;1.00;;;;;;5096331;28;20571;-59
2023/06/16 05:28:14;;;;;;;10.77;7.73;;;15.70;1.00;;;;;;5095349;28;20464;-58
2023/06/16 05:30:41;;;;;;;11.13;8.03;;;15.90;1.00;;;;;;5098913;28;20506;-57
2023/06/16 05:33:08;;;;;;;12.13;8.10;;;16.10;1.00;;;;;;5102166;28;20492;-58
2023/06/16 05:35:36;;;;;;;12.93;9.20;;;16.30;1.00;;;;;;5097267;28;20754;-58
2023/06/16 05:38:03;;;;;;;9.23;8.23;;;16.50;1.00;;;;;;5097353;28;20547;-58
2023/06/16 05:40:32;;;;;;;8.50;7.60;;;16.70;1.00;;;;;;5096690;28;20457;-58
2023/06/16 05:42:59;;;;;;;8.80;7.97;;;16.90;99.90;;;;;;5106530;28;20793;-59
2023/06/16 05:45:26;;;;;;;8.20;6.53;;;17.20;99.90;;;;;;5113825;28;20566;-58
2023/06/16 05:47:54;;;;;;;8.47;7.53;;;17.50;99.90;;;;;;5105427;28;20733;-58
2023/06/16 05:50:21;;;;;;;9.47;6.90;;;17.90;99.90;;;;;;5099415;28;20895;-59
2023/06/16 05:52:48;;;;;;;9.00;8.20;;;18.10;91.20;;;;;;5098645;28;20492;-59
2023/06/16 05:55:15;;;;;;;11.30;7.63;;;18.40;1.00;;;;;;5102408;28;20565;-59
2023/06/16 05:57:44;;;;;;;11.33;7.30;;;18.60;1.00;;;;;;5105285;28;20470;-58
2023/06/16 06:00:12;;;;;;;7.53;6.40;;;18.80;18.60;;;;;;5099251;28;20472;-59
2023/06/16 06:02:40;;;;;;;7.50;6.80;;;19.00;2.30;;;;;;5103708;28;20486;-59
2023/06/16 06:05:08;;;;;;;11.10;7.43;;;19.20;1.00;;;;;;5102573;28;20529;-59
2023/06/16 06:07:35;;;;;;;9.10;6.97;;;19.30;1.00;;;;;;5098586;28;20869;-58
2023/06/16 06:10:02;;;;;;;6.87;6.10;;;19.60;1.00;;;;;;5097723;28;20745;-59
2023/06/16 06:12:30;;;;;;;6.30;5.70;;;19.80;1.00;;;;;;5103198;28;20503;-58
2023/06/16 06:14:58;;;;;;;7.23;6.53;;;19.80;1.00;;;;;;5117785;28;20469;-59
2023/06/16 06:17:26;;;;;;;6.83;6.23;;;19.90;1.00;;;;;;5104903;28;20476;-58
2023/06/16 06:19:53;;;;;;;7.53;6.47;;;19.90;1.00;;;;;;5102332;28;20461;-59
2023/06/16 06:22:20;;;;;;;6.23;5.63;;;20.10;1.00;;;;;;5097634;28;20562;-59
2023/06/16 06:24:48;;;;;;;6.73;6.13;;;20.50;1.00;;;;;;5099071;28;20464;-58
2023/06/16 06:27:16;;;;;;;7.67;6.40;;;20.70;1.00;;;;;;5099167;28;20464;-58
2023/06/16 06:29:44;;;;;;;9.03;6.57;;;21.00;99.90;;;;;;5099522;28;20525;-58
2023/06/16 06:32:13;;;;;;;6.50;5.87;;;21.30;99.90;;;;;;5098942;28;20435;-58
2023/06/16 06:34:40;;;;;;;8.57;5.70;;;21.50;99.90;;;;;;5099717;28;20970;-58
2023/06/16 06:37:08;;;;;;;8.50;6.20;;;21.60;99.90;;;;;;5099686;28;20469;-58
2023/06/16 06:39:35;;;;;;;8.03;5.70;;;21.60;99.90;;;;;;5099920;28;20880;-58
2023/06/16 06:42:02;;;;;;;8.50;6.20;;;21.80;99.90;;;;;;5103119;28;20907;-58
2023/06/16 06:44:29;;;;;;;7.30;5.90;;;22.10;99.90;;;;;;5118359;28;20562;-59
2023/06/16 06:46:58;;;;;;;6.47;5.97;;;22.10;99.90;;;;;;5108149;28;20472;-59
2023/06/16 06:49:27;;;;;;;7.80;7.10;;;22.40;99.90;;;;;;5103304;28;20515;-59
2023/06/16 06:51:54;;;;;;;10.43;6.40;;;22.60;99.90;;;;;;5118130;28;20497;-58
2023/06/16 06:54:21;;;;;;;7.00;6.30;;;22.80;99.90;;;;;;5118302;28;20502;-59
2023/06/16 06:56:48;;;;;;;7.37;6.77;;;23.00;99.90;;;;;;5118431;28;20463;-58
2023/06/16 06:59:15;;;;;;;6.70;6.00;;;23.30;99.90;;;;;;5117990;28;20539;-59
2023/06/16 07:01:43;;;;;;;6.20;5.70;;;23.40;99.90;;;;;;5117522;28;20891;-59
2023/06/16 07:04:10;;;;;;;6.97;6.37;;;23.40;99.90;;;;;;5118235;28;20487;-58
2023/06/16 07:06:39;;;;;;;7.70;6.30;;;23.40;99.90;;;;;;5118209;28;20927;-58
2023/06/16 07:09:07;;;;;;;7.33;6.50;;;23.50;99.90;;;;;;5116839;28;20479;-59
2023/06/16 07:11:34;;;;;;;7.43;6.73;;;23.70;99.90;;;;;;5118383;28;20479;-59
2023/06/16 07:14:02;;;;;;;8.03;7.33;;;23.60;99.90;;;;;;5115541;28;21049;-59
2023/06/16 07:16:29;;;;;;;7.47;6.70;;;23.60;99.90;;;;;;5108334;28;20475;-59
2023/06/16 07:18:57;;;;;;;8.80;6.27;;;24.00;99.90;;;;;;5104063;28;20885;-59
2023/06/16 07:21:27;;;;;;;7.30;6.57;;;23.60;99.90;;;;;;5101567;28;20530;-59
2023/06/16 07:23:56;;;;;;;6.40;5.50;;;23.80;99.90;;;;;;5095290;28;20490;-59
2023/06/16 07:26:23;;;;;;;7.70;5.33;;;24.00;92.80;;;;;;5095064;28;20546;-58
2023/06/16 07:28:50;;;;;;;6.60;5.80;;;24.60;99.90;;;;;;5096139;28;20473;-58
2023/06/16 07:31:18;;;;;;;6.57;5.63;;;25.10;99.90;;;;;;5105710;28;20477;-58
2023/06/16 07:33:45;;;;;;;5.87;4.83;;;25.40;80.60;;;;;;5105679;28;20582;-58
2023/06/16 07:36:12;;;;;;;7.50;6.37;;;25.60;52.30;;;;;;5110606;28;20562;-59
2023/06/16 07:38:40;;;;;;;9.20;5.30;;;25.90;18.80;;;;;;5110210;28;20470;-59
2023/06/16 07:41:08;;;;;;;5.17;4.77;;;24.40;1.00;;;;;;5098041;28;20465;-59
2023/06/16 07:43:36;;;;;;;5.77;5.27;;;24.30;1.00;;;;;;5101875;28;20494;-59
2023/06/16 07:46:04;;;;;;;4.87;4.47;;;24.20;1.00;;;;;;5105478;28;20473;-60
2023/06/16 07:48:31;;;;;;;5.63;4.27;;;23.90;1.00;;;;;;5094851;28;20867;-59
2023/06/16 07:50:59;;;;;;;5.80;4.97;;;24.30;1.00;;;;;;5096758;28;20479;-59
2023/06/16 07:53:26;;;;;;;5.53;5.03;;;24.50;1.00;;;;;;5096268;28;20506;-59
2023/06/16 07:55:53;;;;;;;5.03;4.63;;;24.30;1.00;;;;;;5096440;28;20750;-60
2023/06/16 07:58:22;;;;;;;5.53;5.03;;;24.30;1.00;;;;;;5096007;28;20474;-58
2023/06/16 08:00:51;;;;;;;5.90;5.40;;;24.10;1.00;;;;;;5094803;28;20882;-59
2023/06/16 08:03:19;;;;;;;5.60;5.20;;;23.70;1.00;;;;;;5094687;28;20516;-60
2023/06/16 08:05:47;;;;;;;5.83;4.60;;;24.00;1.00;;;;;;5094731;28;20522;-58
2023/06/16 08:08:17;;;;;;;6.67;4.77;;;24.00;1.00;;;;;;5095881;28;20555;-59
2023/06/16 08:10:44;;;;;;;6.00;5.00;;;23.70;1.00;;;;;;5107069;28;20562;-59
2023/06/16 08:13:12;;;;;;;5.03;4.50;;;24.00;1.00;;;;;;5098565;28;20469;-59
2023/06/16 08:15:40;;;;;;;5.80;5.30;;;23.70;1.00;;;;;;5096481;28;20475;-60
2023/06/16 08:18:07;;;;;;;6.03;5.10;;;23.40;1.00;;;;;;5097562;28;20464;-58
2023/06/16 08:20:35;;;;;;;5.70;5.20;;;23.50;1.00;;;;;;5096755;28;20468;-60
2023/06/16 08:23:02;;;;;;;5.93;5.43;;;23.50;1.00;;;;;;5095002;28;20897;-58
2023/06/16 08:25:29;;;;;;;6.93;5.67;;;23.80;1.00;;;;;;5094758;28;20464;-60
2023/06/16 08:27:57;;;;;;;7.60;4.93;;;24.30;1.00;;;;;;5094442;28;20471;-59
2023/06/16 08:30:24;;;;;;;5.40;5.00;;;24.20;1.00;;;;;;5097296;28;20865;-59
2023/06/16 08:32:53;;;;;;;5.57;5.00;;;23.70;1.00;;;;;;5094277;28;21101;-59
2023/06/16 08:35:21;;;;;;;5.43;5.03;;;23.60;1.00;;;;;;5092586;28;20587;-59
2023/06/16 08:37:48;;;;;;;5.67;5.17;;;24.20;1.00;;;;;;5094612;28;20510;-57
2023/06/16 08:40:16;;;;;;;5.23;4.73;;;24.30;1.00;;;;;;5095379;28;20826;-58
2023/06/16 08:42:46;;;;;;;4.63;4.23;;;24.60;1.00;;;;;;5108008;28;20562;-59
2023/06/16 08:45:14;;;;;;;9.07;4.80;;;25.30;1.00;;;;;;5114696;28;20516;-59
2023/06/16 08:47:43;;;;;;;5.20;4.70;;;26.00;1.00;;;;;;5116814;28;20508;-59
2023/06/16 08:50:13;;;;;;;5.90;4.97;;;26.60;1.00;;;;;;5115178;28;20746;-59
2023/06/16 08:52:45;;;;;;;5.13;4.73;;;27.20;1.00;;;;;;5115891;28;20475;-57
2023/06/16 08:55:13;;;;;;;5.20;4.80;;;27.60;1.00;;;;;;5114935;28;20894;-58
2023/06/16 08:57:46;;;;;;;5.63;5.10;;;27.50;1.00;;;;;;5115264;28;20467;-59
2023/06/16 09:00:14;;;;;;;11.10;6.00;;;27.70;1.00;;;;;;5111711;28;20463;-59
2023/06/16 09:02:44;;;;;;;5.40;4.90;;;26.90;1.00;;;;;;5092912;28;20490;-59
2023/06/16 09:05:12;;;;;;;5.73;5.13;;;25.40;1.00;;;;;;5112160;28;20767;-60
2023/06/16 09:07:41;;;;;;;7.70;5.50;;;24.80;1.00;;;;;;5094714;28;20841;-60
2023/06/16 09:10:09;;;;;;;5.73;5.20;;;25.30;1.00;;;;;;5094994;28;20825;-59
2023/06/16 09:12:36;;;;;;;5.50;5.00;;;26.60;1.00;;;;;;5107045;28;20472;-59
2023/06/16 09:15:08;;;;;;;6.20;5.67;;;26.40;1.00;;;;;;5095434;28;20498;-60
2023/06/16 09:17:37;;;;;;;5.77;4.90;;;25.70;1.00;;;;;;5098877;28;20563;-58
2023/06/16 09:20:07;;;;;;;7.10;6.30;;;26.00;1.00;;;;;;5096127;28;20460;-60
2023/06/16 09:22:36;;;;;;;7.60;5.57;;;25.60;1.00;;;;;;5096097;28;20476;-59
2023/06/16 09:25:05;;;;;;;6.17;5.67;;;25.70;1.00;;;;;;5097132;28;20870;-59
2023/06/16 09:27:46;;;;;;;5.43;4.80;;;25.70;1.00;;;;;;5109107;28;20499;-58
2023/06/16 09:30:15;;;;;;;5.90;5.40;;;26.60;1.00;;;;;;5116849;28;20557;-59
2023/06/16 09:32:43;;;;;;;4.90;4.30;;;27.90;1.00;;;;;;5116974;28;20528;-59
2023/06/16 09:35:19;;;;;;;5.60;5.17;;;26.30;1.00;;;;;;5116901;28;20591;-59
2023/06/16 09:37:48;;;;;;;5.03;4.63;;;26.00;1.00;;;;;;5119256;28;20895;-59
2023/06/16 09:40:16;;;;;;;6.43;5.83;;;26.90;1.00;;;;;;5119623;28;20459;-58
2023/06/16 09:42:45;;;;;;;6.50;5.90;;;27.10;1.00;;;;;;5117074;28;20764;-60
2023/06/16 09:45:14;;;;;;;6.03;5.20;;;28.00;1.00;;;;;;5118119;28;20459;-59
2023/06/16 09:47:45;;;;;;;6.13;5.53;;;27.40;1.00;;;;;;5113419;27;20493;-58
2023/06/16 09:50:14;;;;;;;6.40;5.80;;;28.60;1.00;;;;;;5098522;28;20463;-58
2023/06/16 09:52:42;;;;;;;5.10;4.70;;;29.10;1.00;;;;;;5098847;28;20456;-59
2023/06/16 09:55:12;;;;;;;5.70;5.20;;;28.50;1.00;;;;;;5098763;28;20487;-59
2023/06/16 09:57:41;;;;;;;6.07;5.47;;;28.30;1.00;;;;;;5099931;28;20464;-58
2023/06/16 10:00:15;;;;;;;7.10;5.37;;;27.80;1.00;;;;;;5099964;28;20565;-59
2023/06/16 10:02:43;;;;;;;7.10;5.07;;;28.20;1.00;;;;;;5099695;28;20522;-58
2023/06/16 10:05:13;;;;;;;7.20;5.10;;;28.40;1.00;;;;;;5116952;27;20460;-58
2023/06/16 10:07:43;;;;;;;6.03;5.50;;;28.30;1.00;;;;;;5100166;28;20475;-59
2023/06/16 10:10:12;;;;;;;6.90;5.50;;;27.10;1.00;;;;;;5099691;28;20457;-59
2023/06/16 10:12:46;;;;;;;5.77;5.27;;;28.30;1.00;;;;;;5111074;28;20562;-59
2023/06/16 10:15:17;;;;;;;5.87;5.10;;;28.80;1.00;;;;;;5119357;28;20511;-59
2023/06/16 10:17:46;;;;;;;5.20;4.70;;;28.80;1.00;;;;;;5115604;27;20474;-60
2023/06/16 10:20:16;;;;;;;7.13;5.97;;;29.30;1.00;;;;;;5119872;27;20917;-59
2023/06/16 10:22:45;;;;;;;5.50;5.10;;;27.80;1.00;;;;;;5108734;28;20467;-60
2023/06/16 10:25:14;;;;;;;7.33;5.60;;;28.00;1.00;;;;;;5104470;28;20460;-56
2023/06/16 10:27:43;;;;;;;4.97;4.57;;;28.80;1.00;;;;;;5100035;28;20472;-58
2023/06/16 10:30:16;;;;;;;7.23;4.93;;;29.80;1.00;;;;;;5098804;28;20642;-61
2023/06/16 10:32:46;;;;;;;6.00;5.60;;;30.50;1.00;;;;;;5099095;28;20464;-58
2023/06/16 10:35:15;;;;;;;5.70;5.30;;;30.60;1.00;;;;;;5098326;28;20488;-59
2023/06/16 10:37:42;;;;;;;5.90;5.30;;;30.60;1.00;;;;;;5099162;28;20471;-59
2023/06/16 10:40:15;;;;;;;5.43;5.03;;;30.60;1.00;;;;;;5099309;28;20506;-59
2023/06/16 10:42:42;;;;;;;6.50;6.00;;;29.50;1.00;;;;;;5117579;28;20823;-55
2023/06/16 10:45:26;;;;;;;6.03;5.63;;;29.50;1.00;;;;;;5119151;28;20887;-54
2023/06/16 10:47:58;;;;;;;6.10;5.60;;;30.60;1.00;;;;;;5103135;28;20468;-56
2023/06/16 10:50:41;;;;;;;5.57;5.07;;;31.30;1.00;;;;;;5104862;28;20814;-55
2023/06/16 10:53:13;;;;;;;5.20;4.80;;;30.80;1.00;;;;;;5098163;28;20459;-55
2023/06/16 10:55:44;;;;;;;6.53;5.33;;;29.80;1.00;;;;;;5097534;28;20594;-57
2023/06/16 10:58:30;;;;;;;6.67;5.93;;;28.70;1.00;;;;;;5114428;28;20467;-54
2023/06/16 11:01:07;;;;;;;6.07;5.57;;;29.50;1.00;;;;;;5098729;28;20471;-54
2023/06/16 11:03:39;;;;;;;7.77;6.23;;;30.00;1.00;;;;;;5109851;27;20514;-57
2023/06/16 11:06:06;;;;;;;5.80;5.37;;;28.90;1.00;;;;;;5102111;27;20460;-57
2023/06/16 11:08:49;;;;;;;6.00;5.50;;;28.00;1.00;;;;;;5107480;27;20773;-57
2023/06/16 11:11:18;;;;;;;6.40;5.90;;;28.00;1.00;;;;;;5098703;28;20563;-57
2023/06/16 11:13:47;;;;;;;5.20;4.80;;;28.30;1.00;;;;;;5116266;28;20470;-58
2023/06/16 11:16:14;;;;;;;5.77;5.37;;;28.70;1.00;;;;;;5119011;27;20546;-57
2023/06/16 11:18:42;;;;;;;6.03;5.63;;;28.90;1.00;;;;;;5106981;28;20510;-57
2023/06/16 11:21:12;;;;;;;6.50;6.00;;;29.00;1.00;;;;;;5096345;28;20757;-58
2023/06/16 11:23:44;;;;;;;5.30;4.90;;;28.40;1.00;;;;;;5096404;28;20471;-57
2023/06/16 11:26:12;;;;;;;5.57;5.17;;;29.60;1.00;;;;;;5108810;28;20459;-56
2023/06/16 11:28:43;;;;;;;6.83;5.50;;;30.70;1.00;;;;;;5096775;28;20452;-57
2023/06/16 11:31:12;;;;;;;5.80;5.30;;;30.70;1.00;;;;;;5099662;28;20468;-57
2023/06/16 11:33:41;;;;;;;4.93;4.63;;;30.20;1.00;;;;;;5109718;28;20471;-56
2023/06/16 11:36:16;;;;;;;5.53;5.07;;;30.50;1.00;;;;;;5116078;28;20753;-57
2023/06/16 11:38:44;;;;;;;5.90;5.40;;;29.80;1.00;;;;;;5114012;28;20539;-57
2023/06/16 11:41:19;;;;;;;6.10;5.50;;;28.70;1.00;;;;;;5106946;28;21107;-56
2023/06/16 11:43:50;;;;;;;5.70;5.30;;;28.60;1.00;;;;;;5105925;27;20912;-55
2023/06/16 11:46:20;;;;;;;5.90;5.50;;;29.50;1.00;;;;;;5097884;28;20460;-57
2023/06/16 11:48:48;;;;;;;6.17;5.57;;;29.00;1.00;;;;;;5102004;28;20537;-57
2023/06/16 11:51:15;;;;;;;6.37;5.70;;;28.40;1.00;;;;;;5100439;28;20907;-57
2023/06/16 11:53:44;;;;;;;6.50;5.90;;;28.30;1.00;;;;;;5097720;28;20471;-57
2023/06/16 11:56:14;;;;;;;5.60;5.20;;;27.60;1.00;;;;;;5097229;28;20848;-57
2023/06/16 11:58:42;;;;;;;7.10;6.53;;;27.80;1.00;;;;;;5097408;28;20783;-56
2023/06/16 12:01:14;;;;;;;6.17;5.70;;;29.30;1.00;;;;;;5097955;28;20474;-56
2023/06/16 12:03:42;;;;;;;6.40;5.80;;;30.60;1.00;;;;;;5097532;28;20542;-56
2023/06/16 12:06:11;;;;;;;6.00;5.47;;;31.70;1.00;;;;;;5097397;28;20464;-57
2023/06/16 12:08:43;;;;;;;6.27;5.73;;;31.00;1.00;;;;;;5097786;28;20460;-55
2023/06/16 12:11:15;;;;;;;5.90;5.50;;;31.00;1.00;;;;;;5098041;28;20460;-58
2023/06/16 12:13:43;;;;;;;6.30;5.80;;;30.80;1.00;;;;;;5116612;28;20740;-56
2023/06/16 12:16:13;;;;;;;5.90;5.40;;;29.70;1.00;;;;;;5096920;28;20535;-57
2023/06/16 12:18:41;;;;;;;5.57;5.17;;;29.40;1.00;;;;;;5097624;28;20563;-56
2023/06/16 12:21:19;;;;;;;6.87;6.37;;;29.80;1.00;;;;;;5103883;28;20472;-56
2023/06/16 12:23:52;;;;;;;6.63;6.10;;;29.00;1.00;;;;;;5097637;28;20969;-56
2023/06/16 12:26:34;;;;;;;6.30;5.70;;;29.00;1.00;;;;;;5097473;28;20464;-56
2023/06/16 12:29:03;;;;;;;5.70;5.37;;;30.20;1.00;;;;;;5097031;28;20474;-55
2023/06/16 12:31:32;;;;;;;6.80;5.50;;;31.10;1.00;;;;;;5097290;28;20466;-56
2023/06/16 12:34:00;;;;;;;6.07;5.67;;;31.60;1.00;;;;;;5103854;28;20934;-56
2023/06/16 12:36:27;;;;;;;6.23;5.77;;;32.00;1.00;;;;;;5097331;28;20963;-55
2023/06/16 12:38:56;;;;;;;9.53;5.93;;;31.70;1.00;;;;;;5097580;28;20542;-56
2023/06/16 12:41:27;;;;;;;6.30;5.87;;;31.00;1.00;;;;;;5099168;28;20899;-56
2023/06/16 12:43:54;;;;;;;5.43;5.03;;;30.70;1.00;;;;;;5116533;28;20494;-57
2023/06/16 12:46:21;;;;;;;7.30;6.70;;;29.30;1.00;;;;;;5108966;28;20471;-54
2023/06/16 12:48:50;;;;;;;6.47;5.97;;;29.30;1.00;;;;;;5109168;28;20467;-56
2023/06/16 12:51:17;;;;;;;7.07;6.47;;;30.20;1.00;;;;;;5116783;28;20465;-56
2023/06/16 12:53:46;;;;;;;6.70;6.20;;;30.30;1.00;;;;;;5113765;28;20550;-57
2023/06/16 12:56:15;;;;;;;6.10;5.60;;;29.80;1.00;;;;;;5097629;28;20959;-52
2023/06/16 12:58:43;;;;;;;7.10;6.20;;;29.60;1.00;;;;;;5110149;28;20892;-56